Date,TemperatureHighF,TemperatureAvgF,TemperatureLowF,DewpointHighF,DewpointAvgF,DewpointLowF,HumidityHigh,HumidityAvg,HumidityLow,PressureMaxIn,PressureMinIn,WindSpeedMaxMPH,WindSpeedAvgMPH,GustSpeedMaxMPH,PrecipitationSumIn
2013-1-1,48.2,45.2,42.3,47.8,38.6,27.2,99,79,52,29.90,29.71,15,5,15,0.09
2013-1-2,48.4,43.3,37.9,46.1,37.5,30.1,99,81,60,29.99,29.70,13,3,13,0.01
2013-1-3,42.1,37.7,33.1,33.0,28.7,23.2,82,70,59,30.06,29.92,5,2,5,0.00
2013-1-4,50.9,37.1,28.6,23.2,18.9,15.2,67,49,26,30.15,30.02,17,5,17,0.00
2013-1-5,52.9,39.3,28.4,26.8,20.5,16.1,61,48,25,30.22,29.97,9,3,9,0.00
2013-1-6,55.9,44.1,37.8,36.9,32.6,26.2,82,65,46,29.99,29.86,8,2,8,0.01
2013-1-7,54.0,40.8,31.1,30.5,26.4,21.9,71,57,38,30.26,29.98,13,2,13,0.00
2013-1-8,54.5,42.2,27.9,39.0,32.4,21.6,83,69,54,30.22,30.13,8,2,8,0.00
2013-1-9,46.2,44.9,41.5,38.1,37.4,35.8,81,75,72,30.17,30.13,4,2,4,0.00
2013-1-10,60.8,53.2,44.2,48.8,39.1,30.7,87,61,33,30.30,30.18,8,1,8,0.00
2013-1-11,47.3,42.9,40.3,44.0,40.8,35.5,99,92,73,30.17,29.94,10,2,10,0.06
2013-1-12,66.2,54.3,44.8,61.4,52.8,44.0,99,95,81,29.95,29.88,7,2,7,0.02
2013-1-13,72.7,63.5,57.7,61.3,58.2,56.0,97,84,62,29.93,29.85,21,6,21,0.01
2013-1-14,63.5,60.7,54.0,61.5,58.6,53.1,98,93,82,29.95,29.85,22,3,22,0.22
2013-1-15,54.0,42.9,39.7,53.1,42.4,39.5,99,98,95,30.00,29.88,14,5,15,0.30
2013-1-16,48.4,43.1,38.3,47.8,42.7,38.0,99,98,97,29.88,29.72,14,2,14,0.34
2013-1-17,48.6,42.0,32.4,48.3,41.3,31.1,99,97,93,29.97,29.72,32,7,32,1.48
2013-1-18,49.3,35.4,29.7,31.4,26.8,21.6,96,73,41,30.31,29.97,5,0,5,0.18
2013-1-19,52.5,41.0,28.9,31.1,24.6,21.1,73,54,36,30.29,30.07,12,4,13,0.00
2013-1-20,61.3,49.1,42.3,28.8,25.3,20.0,56,40,22,30.07,29.84,17,3,17,0.00
2013-1-21,58.3,43.5,30.0,33.0,22.5,7.1,76,47,21,29.90,29.70,24,6,24,0.00
2013-1-22,37.6,30.2,23.4,9.6,-3.8,-10.1,33,23,18,30.08,29.79,17,6,17,0.00
2013-1-23,43.9,29.8,18.9,14.9,5.5,-8.3,49,36,24,30.14,29.82,19,4,19,0.00
2013-1-24,35.6,30.7,23.0,22.1,5.9,-8.0,61,37,20,30.32,29.74,20,6,20,0.00
2013-1-25,23.0,20.6,19.6,4.1,0.7,-3.3,48,41,33,30.29,30.19,5,1,11,0.00
2013-2-2,39.9,37.4,31.5,14.3,8.9,2.3,40,30,23,30.07,29.85,12,4,18,0.00
2013-2-3,49.5,38.3,30.9,29.4,23.9,15.3,84,59,34,29.84,29.67,15,4,24,0.02
2013-2-4,48.7,37.6,28.4,24.6,18.8,13.7,60,47,31,29.95,29.80,8,2,11,0.00
2013-2-5,61.2,45.6,35.1,32.6,27.6,21.1,66,51,29,29.80,29.71,10,3,14,0.00
2013-2-6,61.2,47.5,35.6,31.0,24.6,17.0,72,44,20,30.10,29.77,9,2,14,0.00
2013-2-7,41.9,37.5,34.9,34.4,29.6,22.4,89,74,47,30.14,29.85,11,4,15,0.78
2013-2-8,58.1,42.7,34.3,45.4,33.0,23.3,94,71,34,29.92,29.68,15,6,27,0.18
2013-2-9,56.3,41.8,33.1,23.5,15.1,7.9,56,36,18,30.18,29.87,13,3,17,0.01
2013-2-10,55.8,40.9,28.2,36.7,19.5,9.7,81,45,21,30.28,29.98,7,0,10,0.11
2013-2-11,56.3,48.5,40.8,55.0,46.2,36.5,98,92,81,29.99,29.77,13,4,17,0.06
2013-2-12,59.7,50.2,42.4,46.7,27.3,18.9,82,42,21,29.94,29.76,11,3,17,0.00
2013-2-13,47.3,43.6,37.8,43.0,39.3,30.6,92,85,65,29.81,29.47,10,2,14,0.26
2013-2-14,53.6,42.3,34.2,32.6,28.2,23.6,76,58,39,29.90,29.67,10,2,14,0.01
2013-2-15,61.7,47.1,32.9,37.7,30.7,24.3,82,56,26,29.95,29.79,12,3,20,0.01
2013-2-16,41.4,35.2,28.0,30.8,24.5,6.9,82,66,40,29.83,29.69,13,3,17,0.02
2013-2-17,39.2,29.4,23.2,9.3,1.4,-7.2,47,30,19,30.08,29.77,17,6,27,0.01
2013-2-18,55.9,37.4,20.3,23.3,12.7,-0.2,51,37,21,30.22,30.02,10,2,13,0.00
2013-2-19,48.0,40.4,35.2,42.6,29.8,10.7,93,68,29,30.03,29.67,11,4,17,0.18
2013-2-20,52.9,40.4,28.8,14.5,9.7,1.8,48,29,18,29.97,29.80,10,3,16,0.01
2013-2-21,34.5,29.3,28.9,8.9,7.9,2.2,42,40,25,29.97,29.94,4,0,8,0.00
2013-2-22,28.9,28.9,28.9,8.2,8.2,8.2,41,41,41,29.95,29.95,0,0,1,0.00
2013-2-23,46.4,36.3,28.9,41.8,24.7,8.2,94,66,41,29.95,29.61,4,0,7,0.51
2013-2-24,62.4,49.0,37.9,43.3,30.0,17.6,95,56,19,29.85,29.58,14,4,19,0.00
2013-2-25,43.7,37.7,32.4,24.5,21.4,18.5,63,52,40,29.99,29.83,7,1,9,0.01
2013-2-26,38.1,34.9,31.5,37.3,30.6,20.0,97,85,56,29.92,29.38,11,2,16,0.25
2013-2-27,57.0,45.9,36.9,38.7,36.4,32.2,99,72,44,29.64,29.40,13,4,18,0.00
2013-2-28,47.8,41.5,35.1,35.6,26.3,21.8,74,55,38,29.67,29.48,17,5,21,0.00
2013-3-1,43.3,40.0,35.8,27.7,24.8,19.7,64,55,45,29.71,29.60,11,3,16,0.00
2013-3-2,43.9,35.9,32.4,25.5,19.8,14.7,67,52,39,29.73,29.61,11,2,20,0.01
2013-3-3,43.9,34.0,27.3,19.5,13.6,8.9,53,43,31,29.81,29.65,14,5,18,0.00
2013-3-4,54.5,38.7,25.7,17.2,9.7,5.6,49,32,19,29.95,29.76,12,4,18,0.00
2013-3-5,48.9,42.2,36.9,41.2,30.5,13.1,94,66,35,29.85,29.38,11,1,14,0.32
2013-3-6,47.1,38.8,33.1,38.4,25.5,18.5,94,60,42,29.91,29.37,20,7,29,0.08
2013-3-7,52.5,40.1,32.0,28.4,23.9,19.1,63,53,36,30.08,29.85,11,4,20,0.00
2013-3-8,57.4,42.0,29.8,24.4,20.5,16.8,63,45,22,30.13,29.99,13,3,19,0.00
2013-3-9,66.0,47.0,30.4,31.4,25.5,19.3,69,45,22,30.19,30.04,7,1,8,0.00
2013-3-10,70.5,52.9,33.8,37.7,31.3,24.0,82,46,23,30.13,30.00,6,1,14,0.00
2013-3-11,65.7,55.0,43.2,53.9,40.2,21.2,87,58,39,30.00,29.69,8,2,14,0.02
2013-3-12,65.1,57.0,45.1,57.8,46.1,27.6,99,71,28,29.78,29.54,12,4,17,0.43
2013-3-13,53.6,43.0,33.6,31.7,23.4,14.2,71,47,27,29.96,29.76,17,5,23,0.04
2013-3-14,52.5,39.2,28.4,18.8,13.0,7.4,52,35,20,30.07,29.92,16,5,21,0.01
2013-3-15,63.1,48.2,32.7,35.5,25.1,14.2,57,41,29,29.96,29.70,15,4,24,0.00
2013-3-16,79.0,62.9,50.9,54.6,44.6,35.2,73,53,31,29.70,29.50,18,6,27,0.04
2013-3-17,62.1,49.7,37.9,51.4,44.8,37.4,99,84,66,29.94,29.65,12,2,18,0.00
2013-3-18,38.8,37.0,35.8,38.6,36.4,35.0,99,98,97,29.95,29.65,8,2,14,0.20
2013-3-19,64.0,47.8,35.1,42.7,26.6,6.3,99,57,17,29.85,29.59,17,5,24,0.00
2013-3-20,57.6,46.3,34.7,21.9,10.7,0.2,38,24,18,29.89,29.57,11,3,20,0.00
2013-3-21,45.5,35.9,27.5,27.0,11.5,1.5,60,37,22,29.80,29.55,17,6,24,0.00
2013-3-22,52.3,36.5,23.0,19.9,10.6,4.5,53,36,20,29.89,29.74,12,3,15,0.00
2013-3-23,60.8,46.2,36.5,30.6,24.3,18.5,58,43,28,29.85,29.69,5,1,8,0.00
2013-3-24,44.2,42.9,41.5,32.8,30.7,29.1,70,62,57,29.72,29.66,3,0,5,0.00
2013-3-25,44.8,37.6,32.2,35.9,27.6,20.3,99,71,42,29.65,29.33,15,5,21,0.05
2013-3-26,46.2,39.1,32.9,27.6,24.0,20.9,71,55,42,29.93,29.63,11,5,19,0.08
2013-3-27,49.1,39.5,32.5,25.2,21.6,17.9,70,50,31,30.03,29.88,16,5,21,0.00
2013-3-28,55.8,42.4,31.1,25.2,20.7,17.8,64,44,24,30.07,29.95,13,4,19,0.01
2013-3-29,61.3,47.6,33.6,32.8,22.2,15.4,58,39,20,30.13,29.97,11,2,17,0.00
2013-3-30,68.0,53.9,40.1,38.4,30.7,24.5,62,43,22,30.07,29.85,9,1,14,0.02
2013-3-31,65.5,54.9,48.4,57.1,50.4,38.4,99,86,59,29.85,29.61,9,3,14,0.37
2013-4-1,68.5,57.6,47.1,54.2,43.8,34.8,97,65,33,29.77,29.59,19,4,25,0.02
2013-4-2,61.7,48.3,35.2,35.0,23.9,13.1,75,44,18,30.00,29.76,12,2,17,0.08
2013-4-3,61.2,48.0,36.9,24.0,17.4,12.6,44,30,19,30.14,29.93,9,2,12,0.00
2013-4-4,47.8,39.1,34.3,34.6,24.9,7.4,98,63,21,30.15,29.76,12,3,17,0.73
2013-4-5,66.6,49.4,34.2,47.6,38.2,31.5,99,71,30,29.83,29.68,11,2,14,0.06
2013-4-6,69.1,53.9,38.8,41.0,33.4,30.2,76,48,26,30.10,29.81,8,1,11,0.00
2013-4-7,72.9,58.0,41.9,46.1,40.8,32.1,82,55,32,30.06,29.86,13,3,18,0.01
2013-4-8,79.5,66.0,54.3,57.6,51.8,45.1,91,63,39,29.99,29.85,11,4,19,0.01
2013-4-9,85.5,71.5,58.5,58.3,54.4,49.8,84,57,34,30.05,29.87,12,4,16,0.06
2013-4-10,87.3,74.5,62.4,61.1,57.5,54.7,80,57,34,29.97,29.78,12,4,19,0.00
2013-4-11,82.6,71.5,61.0,65.7,60.1,56.2,90,69,45,29.81,29.60,15,4,28,0.02
2013-4-12,82.4,70.4,59.7,66.7,57.2,36.1,99,67,32,29.61,29.42,18,5,26,0.77
2013-4-13,77.2,62.4,46.2,44.1,36.5,26.0,69,41,18,29.82,29.57,11,3,16,0.08
2013-4-14,80.4,66.0,49.3,51.1,38.6,31.3,66,39,20,29.93,29.77,9,2,12,0.00
2013-4-15,70.0,59.4,54.7,60.7,55.8,50.9,99,88,68,29.99,29.81,8,1,10,0.25
2013-4-16,82.6,66.5,53.6,64.5,58.7,52.8,99,78,48,30.10,29.94,8,1,11,0.00
2013-4-17,84.0,70.4,60.6,62.9,59.4,56.4,90,70,44,30.01,29.85,8,2,12,0.01
2013-4-18,80.8,70.9,64.2,64.3,60.3,55.4,89,71,44,29.97,29.74,8,2,13,0.00
2013-4-19,76.8,69.4,65.5,68.7,64.2,59.7,91,84,72,29.75,29.50,16,4,29,0.01
2013-4-20,65.1,53.2,42.6,46.9,32.8,24.3,74,48,23,30.03,29.62,11,4,14,0.02
2013-4-21,65.1,51.0,40.8,42.3,35.3,30.3,75,56,37,30.30,30.02,11,2,15,0.04
2013-4-22,63.3,46.5,37.4,39.6,34.6,24.3,92,67,26,30.25,30.05,12,3,17,0.02
2013-4-23,72.5,57.5,45.9,53.9,46.5,38.8,91,68,44,30.08,29.87,10,2,16,0.13
2013-4-24,74.8,62.6,50.9,59.3,54.2,50.6,99,76,52,29.92,29.74,18,5,27,0.00
2013-4-25,73.9,58.7,46.0,57.2,36.5,17.0,78,48,13,30.10,29.76,12,3,21,0.00
2013-4-26,72.0,57.3,41.4,44.0,35.8,28.3,80,47,21,30.27,30.03,10,1,14,0.00
2013-4-27,69.1,60.0,53.8,53.9,47.7,40.5,88,64,50,30.14,30.03,8,1,10,0.00
2013-4-28,57.4,55.3,54.0,54.8,53.2,52.1,97,93,86,30.04,29.99,2,0,3,0.33